Haci Arif Kaptan — TCQQ — position and weather

sailwx.info

Track history (hours):
 
Tides and Currents Weather Stations Pressure Air Temp Water Temp Dewpoint Dewpoint Depression Visibility Wind Speed Wind Dir Waves Ship Positions

Haci Arif Kaptan

Last reported at 2015-Jan-25 05:13 UTC. Time now 2015-Jan-28 06:36 UTC.
Position N 41°15' E 029°08'.

Length 130 m; draft 7.6 m.

Type: Cargo ship. MMSI: 271000494.

Date/timePositionNaut miles runAvg speedWind from/ knotsBaromVisibWave heightAir tempDewpointWater temp
2015-Jan-25 05:13N 41°15' E 029°08'10 0.6
2015-Jan-24 12:20N 41°22' E 029°18'7 9.1
2015-Jan-24 11:33N 41°22' E 029°28'9 8.6
2015-Jan-24 10:33N 41°23' E 029°39'243 8.6
2015-Jan-23 06:27N 43°10' E 034°34'1310.0
2015-Jan-23 05:11N 43°20' E 034°45'710.0
2015-Jan-23 04:30N 43°25' E 034°51'1010.2
2015-Jan-23 03:33N 43°33' E 034°59'1010.2
2015-Jan-23 02:33N 43°40' E 035°08'1010.3
2015-Jan-23 01:33N 43°48' E 035°17'1010.5
2015-Jan-23 00:33N 43°56' E 035°26'1010.2
2015-Jan-22 23:33N 44°04' E 035°35'1010.2
2015-Jan-22 22:33N 44°12' E 035°45'1010.3
2015-Jan-22 21:33N 44°20' E 035°54'1010.2
2015-Jan-22 20:33N 44°28' E 036°03'1010.1
2015-Jan-22 19:33N 44°35' E 036°12'1010.4
2015-Jan-22 18:33N 44°44' E 036°21'1010.4
2015-Jan-22 17:33N 44°53' E 036°28'1010.3
2015-Jan-22 16:33N 45°03' E 036°29'  
Track history (hours):
 
Tides and Currents Weather Stations Pressure Air Temp Water Temp Dewpoint Dewpoint Depression Visibility Wind Speed Wind Dir Waves Ship Positions

Haci Arif Kaptan

Last reported at 2015-Jan-25 05:13 UTC. Time now 2015-Jan-28 06:36 UTC.
Position N 41°15' E 029°08'.

Length 130 m; draft 7.6 m.

Type: Cargo ship. MMSI: 271000494.

Date/timePositionNaut miles runAvg speedWind from/ knotsBaromVisibWave heightAir tempDewpointWater temp
2015-Jan-25 05:13N 41°15' E 029°08'10 0.6
2015-Jan-24 12:20N 41°22' E 029°18'7 9.1
2015-Jan-24 11:33N 41°22' E 029°28'9 8.6
2015-Jan-24 10:33N 41°23' E 029°39'243 8.6
2015-Jan-23 06:27N 43°10' E 034°34'1310.0
2015-Jan-23 05:11N 43°20' E 034°45'710.0
2015-Jan-23 04:30N 43°25' E 034°51'1010.2
2015-Jan-23 03:33N 43°33' E 034°59'1010.2
2015-Jan-23 02:33N 43°40' E 035°08'1010.3
2015-Jan-23 01:33N 43°48' E 035°17'1010.5
2015-Jan-23 00:33N 43°56' E 035°26'1010.2
2015-Jan-22 23:33N 44°04' E 035°35'1010.2
2015-Jan-22 22:33N 44°12' E 035°45'1010.3
2015-Jan-22 21:33N 44°20' E 035°54'1010.2
2015-Jan-22 20:33N 44°28' E 036°03'1010.1
2015-Jan-22 19:33N 44°35' E 036°12'1010.4
2015-Jan-22 18:33N 44°44' E 036°21'1010.4
2015-Jan-22 17:33N 44°53' E 036°28'1010.3
2015-Jan-22 16:33N 45°03' E 036°29'  

Dump ship's entire track history